sensor_id;sensor_type;location;lat;lon;timestamp;temperature;humidity
49042;DHT22;34859;51.608;11.462;2024-03-07T12:24:13;6.80;99.90
49042;DHT22;34859;51.608;11.462;2024-03-07T12:27:12;6.90;99.90
49042;DHT22;34859;51.608;11.462;2024-03-07T12:29:58;7.10;99.90
49042;DHT22;34859;51.608;11.462;2024-03-07T12:32:48;7.30;99.90
49042;DHT22;34859;51.608;11.462;2024-03-07T12:35:35;7.50;99.90
49042;DHT22;34859;51.608;11.462;2024-03-07T12:38:21;7.50;99.90
49042;DHT22;34859;51.608;11.462;2024-03-07T12:41:10;7.50;99.90
49042;DHT22;34859;51.608;11.462;2024-03-07T12:44:02;7.60;99.90
49042;DHT22;34859;51.608;11.462;2024-03-07T12:46:48;7.30;99.90
49042;DHT22;34859;51.608;11.462;2024-03-07T12:49:40;7.20;99.90
49042;DHT22;34859;51.608;11.462;2024-03-07T12:52:26;7.30;99.90
49042;DHT22;34859;51.608;11.462;2024-03-07T12:55:13;7.60;99.90
49042;DHT22;34859;51.608;11.462;2024-03-07T12:57:58;7.80;99.90
49042;DHT22;34859;51.608;11.462;2024-03-07T13:00:44;8.10;99.90
49042;DHT22;34859;51.608;11.462;2024-03-07T13:03:30;8.20;99.90
49042;DHT22;34859;51.608;11.462;2024-03-07T13:06:16;7.90;99.90
49042;DHT22;34859;51.608;11.462;2024-03-07T13:09:11;7.70;99.90
49042;DHT22;34859;51.608;11.462;2024-03-07T13:12:00;7.90;99.90
49042;DHT22;34859;51.608;11.462;2024-03-07T13:14:55;7.90;99.90
49042;DHT22;34859;51.608;11.462;2024-03-07T13:17:41;7.70;99.90
49042;DHT22;34859;51.608;11.462;2024-03-07T13:20:31;7.70;99.90
49042;DHT22;34859;51.608;11.462;2024-03-07T13:23:17;7.60;99.90
49042;DHT22;34859;51.608;11.462;2024-03-07T13:26:03;7.00;99.90
49042;DHT22;34859;51.608;11.462;2024-03-07T13:28:54;6.90;99.90
49042;DHT22;34859;51.608;11.462;2024-03-07T13:31:40;7.00;99.90
49042;DHT22;34859;51.608;11.462;2024-03-07T13:34:30;7.10;99.90
49042;DHT22;34859;51.608;11.462;2024-03-07T13:37:16;6.90;99.90
49042;DHT22;34859;51.608;11.462;2024-03-07T13:40:04;7.00;99.90
49042;DHT22;34859;51.608;11.462;2024-03-07T13:43:08;6.90;99.90
49042;DHT22;34859;51.608;11.462;2024-03-07T13:45:54;6.70;99.90
49042;DHT22;34859;51.608;11.462;2024-03-07T13:48:43;6.60;99.90
49042;DHT22;34859;51.608;11.462;2024-03-07T13:51:29;6.40;99.90
49042;DHT22;34859;51.608;11.462;2024-03-07T13:54:17;6.30;99.90
49042;DHT22;34859;51.608;11.462;2024-03-07T13:57:29;6.30;99.90
49042;DHT22;34859;51.608;11.462;2024-03-07T14:07:30;6.50;99.90
49042;DHT22;34859;51.608;11.462;2024-03-07T14:13:42;6.70;99.90
49042;DHT22;34859;51.608;11.462;2024-03-07T14:16:58;6.60;99.90
49042;DHT22;34859;51.608;11.462;2024-03-07T14:32:13;6.90;99.90
49042;DHT22;34859;51.608;11.462;2024-03-07T14:35:31;6.80;99.90
49042;DHT22;34859;51.608;11.462;2024-03-07T14:38:28;6.60;99.90
49042;DHT22;34859;51.608;11.462;2024-03-07T14:41:16;6.60;99.90
49042;DHT22;34859;51.608;11.462;2024-03-07T14:44:03;6.70;99.90
49042;DHT22;34859;51.608;11.462;2024-03-07T14:47:02;6.80;99.90
49042;DHT22;34859;51.608;11.462;2024-03-07T14:49:51;6.90;99.90
49042;DHT22;34859;51.608;11.462;2024-03-07T14:52:38;6.90;99.90
49042;DHT22;34859;51.608;11.462;2024-03-07T14:55:26;7.00;99.90
49042;DHT22;34859;51.608;11.462;2024-03-07T14:58:13;7.00;99.90
49042;DHT22;34859;51.608;11.462;2024-03-07T15:01:00;6.90;99.90
49042;DHT22;34859;51.608;11.462;2024-03-07T15:03:46;7.00;99.90
49042;DHT22;34859;51.608;11.462;2024-03-07T15:06:32;6.80;99.90
49042;DHT22;34859;51.608;11.462;2024-03-07T15:09:18;6.80;99.90
49042;DHT22;34859;51.608;11.462;2024-03-07T15:12:05;6.70;99.90
49042;DHT22;34859;51.608;11.462;2024-03-07T15:14:52;6.60;99.90
49042;DHT22;34859;51.608;11.462;2024-03-07T15:17:38;6.50;99.90
49042;DHT22;34859;51.608;11.462;2024-03-07T15:20:25;6.50;99.90
49042;DHT22;34859;51.608;11.462;2024-03-07T15:23:12;6.40;99.90
49042;DHT22;34859;51.608;11.462;2024-03-07T15:25:58;6.30;99.90
49042;DHT22;34859;51.608;11.462;2024-03-07T15:28:44;6.30;99.90
49042;DHT22;34859;51.608;11.462;2024-03-07T15:31:30;6.40;99.90
49042;DHT22;34859;51.608;11.462;2024-03-07T15:34:16;6.40;99.90
49042;DHT22;34859;51.608;11.462;2024-03-07T15:37:02;6.50;99.90
49042;DHT22;34859;51.608;11.462;2024-03-07T15:39:48;6.50;99.90
49042;DHT22;34859;51.608;11.462;2024-03-07T15:42:34;6.60;99.90
49042;DHT22;34859;51.608;11.462;2024-03-07T15:45:24;6.50;99.90
49042;DHT22;34859;51.608;11.462;2024-03-07T15:48:10;6.60;99.90
49042;DHT22;34859;51.608;11.462;2024-03-07T15:50:57;6.60;99.90
49042;DHT22;34859;51.608;11.462;2024-03-07T15:53:43;6.60;99.90
49042;DHT22;34859;51.608;11.462;2024-03-07T15:56:29;6.50;99.90
49042;DHT22;34859;51.608;11.462;2024-03-07T15:59:15;6.50;99.90
49042;DHT22;34859;51.608;11.462;2024-03-07T16:02:01;6.50;99.90
49042;DHT22;34859;51.608;11.462;2024-03-07T16:04:47;6.50;99.90
49042;DHT22;34859;51.608;11.462;2024-03-07T16:07:33;6.40;99.90
49042;DHT22;34859;51.608;11.462;2024-03-07T16:10:20;6.30;99.90
49042;DHT22;34859;51.608;11.462;2024-03-07T16:13:11;6.20;99.90
49042;DHT22;34859;51.608;11.462;2024-03-07T16:16:00;6.10;99.90
49042;DHT22;34859;51.608;11.462;2024-03-07T16:18:46;6.00;99.90
49042;DHT22;34859;51.608;11.462;2024-03-07T16:21:32;6.00;99.90
49042;DHT22;34859;51.608;11.462;2024-03-07T16:24:18;5.80;99.90
49042;DHT22;34859;51.608;11.462;2024-03-07T16:27:04;5.80;99.90
49042;DHT22;34859;51.608;11.462;2024-03-07T16:29:50;5.80;99.90
49042;DHT22;34859;51.608;11.462;2024-03-07T16:32:36;5.70;99.90
49042;DHT22;34859;51.608;11.462;2024-03-07T16:35:22;5.60;99.90
49042;DHT22;34859;51.608;11.462;2024-03-07T16:38:08;5.40;99.90
49042;DHT22;34859;51.608;11.462;2024-03-07T16:40:55;5.10;99.90
49042;DHT22;34859;51.608;11.462;2024-03-07T16:43:41;5.10;99.90
49042;DHT22;34859;51.608;11.462;2024-03-07T16:46:27;5.00;99.90
49042;DHT22;34859;51.608;11.462;2024-03-07T16:49:13;4.90;99.90
49042;DHT22;34859;51.608;11.462;2024-03-07T16:51:59;4.80;99.90
49042;DHT22;34859;51.608;11.462;2024-03-07T16:54:45;4.70;99.90
49042;DHT22;34859;51.608;11.462;2024-03-07T16:57:33;4.60;99.90
49042;DHT22;34859;51.608;11.462;2024-03-07T17:00:20;4.60;99.90
49042;DHT22;34859;51.608;11.462;2024-03-07T17:03:12;4.50;99.90
49042;DHT22;34859;51.608;11.462;2024-03-07T17:06:00;4.40;99.90
49042;DHT22;34859;51.608;11.462;2024-03-07T17:08:46;4.20;99.90
49042;DHT22;34859;51.608;11.462;2024-03-07T17:11:33;4.10;99.90
49042;DHT22;34859;51.608;11.462;2024-03-07T17:14:22;4.00;99.90
49042;DHT22;34859;51.608;11.462;2024-03-07T17:17:10;3.80;99.90
49042;DHT22;34859;51.608;11.462;2024-03-07T17:19:59;3.80;99.90
49042;DHT22;34859;51.608;11.462;2024-03-07T17:22:45;3.70;99.90
49042;DHT22;34859;51.608;11.462;2024-03-07T17:25:31;3.60;99.90
49042;DHT22;34859;51.608;11.462;2024-03-07T17:28:17;3.60;99.90
49042;DHT22;34859;51.608;11.462;2024-03-07T17:31:06;3.50;99.90
49042;DHT22;34859;51.608;11.462;2024-03-07T17:33:52;3.30;99.90
49042;DHT22;34859;51.608;11.462;2024-03-07T17:36:38;3.10;99.90
49042;DHT22;34859;51.608;11.462;2024-03-07T17:39:24;3.00;99.90
49042;DHT22;34859;51.608;11.462;2024-03-07T17:42:10;2.90;99.90
49042;DHT22;34859;51.608;11.462;2024-03-07T17:44:59;2.80;99.90
49042;DHT22;34859;51.608;11.462;2024-03-07T17:47:52;2.70;99.90
49042;DHT22;34859;51.608;11.462;2024-03-07T17:50:42;2.70;99.90
49042;DHT22;34859;51.608;11.462;2024-03-07T17:53:29;2.70;99.90
49042;DHT22;34859;51.608;11.462;2024-03-07T17:56:15;2.60;99.90
49042;DHT22;34859;51.608;11.462;2024-03-07T17:59:01;2.50;99.90
49042;DHT22;34859;51.608;11.462;2024-03-07T18:01:47;2.40;99.90
49042;DHT22;34859;51.608;11.462;2024-03-07T18:04:33;2.30;99.90
49042;DHT22;34859;51.608;11.462;2024-03-07T18:07:19;2.20;99.90
49042;DHT22;34859;51.608;11.462;2024-03-07T18:10:08;2.20;99.90
49042;DHT22;34859;51.608;11.462;2024-03-07T18:13:03;2.10;99.90
49042;DHT22;34859;51.608;11.462;2024-03-07T18:15:49;2.00;99.90
49042;DHT22;34859;51.608;11.462;2024-03-07T18:18:35;1.90;99.90
49042;DHT22;34859;51.608;11.462;2024-03-07T18:21:23;1.80;99.90
49042;DHT22;34859;51.608;11.462;2024-03-07T18:24:09;1.80;99.90
49042;DHT22;34859;51.608;11.462;2024-03-07T18:26:55;1.70;99.90
49042;DHT22;34859;51.608;11.462;2024-03-07T18:29:42;1.70;99.90
49042;DHT22;34859;51.608;11.462;2024-03-07T18:32:27;1.60;99.90
49042;DHT22;34859;51.608;11.462;2024-03-07T18:35:14;1.50;99.90
49042;DHT22;34859;51.608;11.462;2024-03-07T18:38:01;1.50;99.90
49042;DHT22;34859;51.608;11.462;2024-03-07T18:40:47;1.40;99.90
49042;DHT22;34859;51.608;11.462;2024-03-07T18:43:34;1.30;99.90
49042;DHT22;34859;51.608;11.462;2024-03-07T18:46:21;1.30;99.90
49042;DHT22;34859;51.608;11.462;2024-03-07T18:49:06;1.20;99.90
49042;DHT22;34859;51.608;11.462;2024-03-07T18:51:58;1.20;99.90
49042;DHT22;34859;51.608;11.462;2024-03-07T18:54:44;1.10;99.90
49042;DHT22;34859;51.608;11.462;2024-03-07T18:57:31;1.00;99.90
49042;DHT22;34859;51.608;11.462;2024-03-07T19:00:20;1.20;99.90
49042;DHT22;34859;51.608;11.462;2024-03-07T19:03:24;1.20;99.90
49042;DHT22;34859;51.608;11.462;2024-03-07T19:06:14;1.30;99.90
49042;DHT22;34859;51.608;11.462;2024-03-07T19:09:02;1.40;99.90
49042;DHT22;34859;51.608;11.462;2024-03-07T19:11:48;1.50;99.90
49042;DHT22;34859;51.608;11.462;2024-03-07T19:14:37;1.50;99.90
49042;DHT22;34859;51.608;11.462;2024-03-07T19:17:22;1.50;99.90
49042;DHT22;34859;51.608;11.462;2024-03-07T19:20:09;1.50;99.90
49042;DHT22;34859;51.608;11.462;2024-03-07T19:23:02;1.40;99.90
49042;DHT22;34859;51.608;11.462;2024-03-07T19:25:49;1.40;99.90
49042;DHT22;34859;51.608;11.462;2024-03-07T19:28:36;1.40;99.90
49042;DHT22;34859;51.608;11.462;2024-03-07T19:31:23;1.20;99.90
49042;DHT22;34859;51.608;11.462;2024-03-07T19:34:09;1.20;99.90
49042;DHT22;34859;51.608;11.462;2024-03-07T19:36:56;1.00;99.90
49042;DHT22;34859;51.608;11.462;2024-03-07T19:39:42;1.00;99.90
49042;DHT22;34859;51.608;11.462;2024-03-07T19:42:29;1.10;99.90
49042;DHT22;34859;51.608;11.462;2024-03-07T19:45:17;0.90;99.90
49042;DHT22;34859;51.608;11.462;2024-03-07T19:48:03;0.80;99.90
49042;DHT22;34859;51.608;11.462;2024-03-07T19:50:49;0.60;99.90
49042;DHT22;34859;51.608;11.462;2024-03-07T19:53:36;0.50;99.90
49042;DHT22;34859;51.608;11.462;2024-03-07T19:56:23;0.40;99.90
49042;DHT22;34859;51.608;11.462;2024-03-07T19:59:09;0.40;99.90
49042;DHT22;34859;51.608;11.462;2024-03-07T20:01:55;0.40;99.90
49042;DHT22;34859;51.608;11.462;2024-03-07T20:04:42;0.40;99.90
49042;DHT22;34859;51.608;11.462;2024-03-07T20:07:29;0.60;99.90
49042;DHT22;34859;51.608;11.462;2024-03-07T20:10:15;0.50;99.90
49042;DHT22;34859;51.608;11.462;2024-03-07T20:13:01;0.50;99.90
49042;DHT22;34859;51.608;11.462;2024-03-07T20:15:47;0.40;99.90
49042;DHT22;34859;51.608;11.462;2024-03-07T20:18:33;0.40;99.90
49042;DHT22;34859;51.608;11.462;2024-03-07T20:21:22;0.30;99.90
49042;DHT22;34859;51.608;11.462;2024-03-07T20:24:08;0.20;99.90
49042;DHT22;34859;51.608;11.462;2024-03-07T20:26:55;0.10;99.90
49042;DHT22;34859;51.608;11.462;2024-03-07T20:29:41;0.10;99.90
49042;DHT22;34859;51.608;11.462;2024-03-07T20:32:28;0.00;99.90
49042;DHT22;34859;51.608;11.462;2024-03-07T20:35:18;0.00;99.90
49042;DHT22;34859;51.608;11.462;2024-03-07T20:38:05;0.00;99.90
49042;DHT22;34859;51.608;11.462;2024-03-07T20:40:51;0.00;99.90
49042;DHT22;34859;51.608;11.462;2024-03-07T20:43:37;0.00;99.90
49042;DHT22;34859;51.608;11.462;2024-03-07T20:46:23;0.00;99.90
49042;DHT22;34859;51.608;11.462;2024-03-07T20:49:09;-0.10;99.90
49042;DHT22;34859;51.608;11.462;2024-03-07T20:51:55;-0.20;99.90
49042;DHT22;34859;51.608;11.462;2024-03-07T20:54:42;-0.10;99.90
49042;DHT22;34859;51.608;11.462;2024-03-07T20:57:28;-0.20;99.90
49042;DHT22;34859;51.608;11.462;2024-03-07T21:00:17;-0.20;99.90
49042;DHT22;34859;51.608;11.462;2024-03-07T21:03:03;-0.10;99.90
49042;DHT22;34859;51.608;11.462;2024-03-07T21:05:52;0.00;99.90
49042;DHT22;34859;51.608;11.462;2024-03-07T21:08:38;0.00;99.90
49042;DHT22;34859;51.608;11.462;2024-03-07T21:11:24;-0.10;99.90
49042;DHT22;34859;51.608;11.462;2024-03-07T21:14:13;-0.10;99.90
49042;DHT22;34859;51.608;11.462;2024-03-07T21:16:59;-0.20;99.90
49042;DHT22;34859;51.608;11.462;2024-03-07T21:19:45;-0.30;99.90
49042;DHT22;34859;51.608;11.462;2024-03-07T21:22:31;-0.40;99.90
49042;DHT22;34859;51.608;11.462;2024-03-07T21:25:19;-0.40;99.90
49042;DHT22;34859;51.608;11.462;2024-03-07T21:28:05;-0.30;99.90
49042;DHT22;34859;51.608;11.462;2024-03-07T21:30:51;-0.20;99.90
49042;DHT22;34859;51.608;11.462;2024-03-07T21:33:38;-0.20;99.90
49042;DHT22;34859;51.608;11.462;2024-03-07T21:36:25;-0.10;99.90
49042;DHT22;34859;51.608;11.462;2024-03-07T21:39:11;-0.10;99.90
49042;DHT22;34859;51.608;11.462;2024-03-07T21:41:57;-0.10;99.90
49042;DHT22;34859;51.608;11.462;2024-03-07T21:44:43;-0.10;99.90
49042;DHT22;34859;51.608;11.462;2024-03-07T21:47:29;-0.20;99.90
49042;DHT22;34859;51.608;11.462;2024-03-07T21:50:15;-0.30;99.90
49042;DHT22;34859;51.608;11.462;2024-03-07T21:53:02;-0.40;99.90
49042;DHT22;34859;51.608;11.462;2024-03-07T21:55:47;-0.40;99.90
49042;DHT22;34859;51.608;11.462;2024-03-07T21:58:34;-0.50;99.90
49042;DHT22;34859;51.608;11.462;2024-03-07T22:01:20;-0.60;99.90
49042;DHT22;34859;51.608;11.462;2024-03-07T22:04:06;-0.50;99.90
49042;DHT22;34859;51.608;11.462;2024-03-07T22:06:52;-0.60;99.90
49042;DHT22;34859;51.608;11.462;2024-03-07T22:09:44;-0.70;99.90
49042;DHT22;34859;51.608;11.462;2024-03-07T22:12:29;-0.80;99.90
49042;DHT22;34859;51.608;11.462;2024-03-07T22:15:15;-0.90;99.90
49042;DHT22;34859;51.608;11.462;2024-03-07T22:18:06;-0.80;99.90
49042;DHT22;34859;51.608;11.462;2024-03-07T22:20:52;-0.80;99.90
49042;DHT22;34859;51.608;11.462;2024-03-07T22:23:38;-0.70;99.90
49042;DHT22;34859;51.608;11.462;2024-03-07T22:26:24;-0.80;99.90
49042;DHT22;34859;51.608;11.462;2024-03-07T22:29:10;-0.90;99.90
49042;DHT22;34859;51.608;11.462;2024-03-07T22:31:56;-0.80;99.90
49042;DHT22;34859;51.608;11.462;2024-03-07T22:34:42;-0.90;99.90
49042;DHT22;34859;51.608;11.462;2024-03-07T22:37:28;-0.90;99.90
49042;DHT22;34859;51.608;11.462;2024-03-07T22:40:14;-1.00;99.90
49042;DHT22;34859;51.608;11.462;2024-03-07T22:43:00;-1.10;99.90
49042;DHT22;34859;51.608;11.462;2024-03-07T22:45:46;-1.10;99.90
49042;DHT22;34859;51.608;11.462;2024-03-07T22:48:32;-1.10;99.90
49042;DHT22;34859;51.608;11.462;2024-03-07T22:51:19;-1.00;99.90
49042;DHT22;34859;51.608;11.462;2024-03-07T22:54:06;-1.00;99.90
49042;DHT22;34859;51.608;11.462;2024-03-07T22:56:53;-0.90;99.90
49042;DHT22;34859;51.608;11.462;2024-03-07T22:59:39;-0.90;99.90
49042;DHT22;34859;51.608;11.462;2024-03-07T23:02:25;-1.00;99.90
49042;DHT22;34859;51.608;11.462;2024-03-07T23:05:11;-1.00;99.90
49042;DHT22;34859;51.608;11.462;2024-03-07T23:07:58;-1.10;99.90
49042;DHT22;34859;51.608;11.462;2024-03-07T23:10:44;-1.20;99.90
49042;DHT22;34859;51.608;11.462;2024-03-07T23:13:32;-1.30;99.90
49042;DHT22;34859;51.608;11.462;2024-03-07T23:16:18;-1.20;99.90
49042;DHT22;34859;51.608;11.462;2024-03-07T23:19:04;-1.30;99.90
49042;DHT22;34859;51.608;11.462;2024-03-07T23:21:50;-1.20;99.90
49042;DHT22;34859;51.608;11.462;2024-03-07T23:24:36;-1.30;99.90
49042;DHT22;34859;51.608;11.462;2024-03-07T23:27:22;-1.30;99.90
49042;DHT22;34859;51.608;11.462;2024-03-07T23:30:09;-1.40;99.90
49042;DHT22;34859;51.608;11.462;2024-03-07T23:33:01;-1.30;99.90
49042;DHT22;34859;51.608;11.462;2024-03-07T23:35:47;-1.30;99.90
49042;DHT22;34859;51.608;11.462;2024-03-07T23:38:33;-1.30;99.90
49042;DHT22;34859;51.608;11.462;2024-03-07T23:41:21;-1.20;99.90
49042;DHT22;34859;51.608;11.462;2024-03-07T23:44:07;-1.20;99.90
49042;DHT22;34859;51.608;11.462;2024-03-07T23:46:53;-1.20;99.90
49042;DHT22;34859;51.608;11.462;2024-03-07T23:49:40;-1.30;99.90
49042;DHT22;34859;51.608;11.462;2024-03-07T23:52:25;-1.50;99.90
49042;DHT22;34859;51.608;11.462;2024-03-07T23:55:15;-1.60;99.90
49042;DHT22;34859;51.608;11.462;2024-03-07T23:58:01;-1.70;99.90
